sensor_id;sensor_type;location;lat;lon;timestamp;temperature;humidity
4107;DHT22;21906;50.812;7.132;2022-12-07T00:01:21;6.50;82.40
4107;DHT22;21906;50.812;7.132;2022-12-07T00:03:48;6.50;82.40
4107;DHT22;21906;50.812;7.132;2022-12-07T00:06:15;6.50;82.50
4107;DHT22;21906;50.812;7.132;2022-12-07T00:08:41;6.60;82.60
4107;DHT22;21906;50.812;7.132;2022-12-07T00:11:13;6.50;82.70
4107;DHT22;21906;50.812;7.132;2022-12-07T00:13:39;6.40;83.10
4107;DHT22;21906;50.812;7.132;2022-12-07T00:16:16;6.50;83.10
4107;DHT22;21906;50.812;7.132;2022-12-07T00:18:43;6.50;82.80
4107;DHT22;21906;50.812;7.132;2022-12-07T00:23:39;6.60;82.30
4107;DHT22;21906;50.812;7.132;2022-12-07T00:26:06;6.60;82.40
4107;DHT22;21906;50.812;7.132;2022-12-07T00:28:32;6.70;82.20
4107;DHT22;21906;50.812;7.132;2022-12-07T00:31:07;6.70;82.00
4107;DHT22;21906;50.812;7.132;2022-12-07T00:33:34;6.70;82.20
4107;DHT22;21906;50.812;7.132;2022-12-07T00:36:01;6.70;82.30
4107;DHT22;21906;50.812;7.132;2022-12-07T00:38:29;6.70;82.30
4107;DHT22;21906;50.812;7.132;2022-12-07T00:41:01;6.70;82.20
4107;DHT22;21906;50.812;7.132;2022-12-07T00:43:27;6.70;82.10
4107;DHT22;21906;50.812;7.132;2022-12-07T00:45:53;6.70;82.30
4107;DHT22;21906;50.812;7.132;2022-12-07T00:48:20;6.70;82.10
4107;DHT22;21906;50.812;7.132;2022-12-07T00:50:46;6.70;82.10
4107;DHT22;21906;50.812;7.132;2022-12-07T00:53:12;6.60;82.30
4107;DHT22;21906;50.812;7.132;2022-12-07T00:55:38;6.60;82.30
4107;DHT22;21906;50.812;7.132;2022-12-07T00:58:04;6.60;82.30
4107;DHT22;21906;50.812;7.132;2022-12-07T01:00:30;6.70;82.40
4107;DHT22;21906;50.812;7.132;2022-12-07T01:02:56;6.80;82.00
4107;DHT22;21906;50.812;7.132;2022-12-07T01:05:21;6.80;82.00
4107;DHT22;21906;50.812;7.132;2022-12-07T01:07:47;6.80;81.70
4107;DHT22;21906;50.812;7.132;2022-12-07T01:10:14;6.80;81.80
4107;DHT22;21906;50.812;7.132;2022-12-07T01:12:40;6.80;81.70
4107;DHT22;21906;50.812;7.132;2022-12-07T01:15:07;6.80;81.90
4107;DHT22;21906;50.812;7.132;2022-12-07T01:17:33;6.80;81.80
4107;DHT22;21906;50.812;7.132;2022-12-07T01:20:00;6.80;81.80
4107;DHT22;21906;50.812;7.132;2022-12-07T01:22:26;6.80;81.80
4107;DHT22;21906;50.812;7.132;2022-12-07T01:24:52;6.80;81.60
4107;DHT22;21906;50.812;7.132;2022-12-07T01:27:17;6.90;81.60
4107;DHT22;21906;50.812;7.132;2022-12-07T01:29:43;6.70;81.80
4107;DHT22;21906;50.812;7.132;2022-12-07T01:32:09;6.70;81.90
4107;DHT22;21906;50.812;7.132;2022-12-07T01:34:34;6.80;81.80
4107;DHT22;21906;50.812;7.132;2022-12-07T01:37:00;6.80;81.90
4107;DHT22;21906;50.812;7.132;2022-12-07T01:39:25;6.90;81.70
4107;DHT22;21906;50.812;7.132;2022-12-07T01:41:52;6.90;81.70
4107;DHT22;21906;50.812;7.132;2022-12-07T01:44:30;6.90;81.60
4107;DHT22;21906;50.812;7.132;2022-12-07T01:47:02;6.90;81.60
4107;DHT22;21906;50.812;7.132;2022-12-07T01:49:37;6.90;81.60
4107;DHT22;21906;50.812;7.132;2022-12-07T01:54:36;6.90;81.50
4107;DHT22;21906;50.812;7.132;2022-12-07T01:57:02;6.70;81.90
4107;DHT22;21906;50.812;7.132;2022-12-07T01:59:28;6.70;82.00
4107;DHT22;21906;50.812;7.132;2022-12-07T02:01:55;6.80;82.00
4107;DHT22;21906;50.812;7.132;2022-12-07T02:04:22;6.90;82.00
4107;DHT22;21906;50.812;7.132;2022-12-07T02:06:48;6.70;82.10
4107;DHT22;21906;50.812;7.132;2022-12-07T02:09:14;6.80;81.80
4107;DHT22;21906;50.812;7.132;2022-12-07T02:11:40;6.70;82.40
4107;DHT22;21906;50.812;7.132;2022-12-07T02:14:06;6.70;82.50
4107;DHT22;21906;50.812;7.132;2022-12-07T02:28:09;6.90;82.10
4107;DHT22;21906;50.812;7.132;2022-12-07T02:30:42;6.80;82.10
4107;DHT22;21906;50.812;7.132;2022-12-07T02:33:31;6.80;82.10
4107;DHT22;21906;50.812;7.132;2022-12-07T02:36:07;6.80;82.00
4107;DHT22;21906;50.812;7.132;2022-12-07T02:38:43;6.80;82.10
4107;DHT22;21906;50.812;7.132;2022-12-07T02:41:18;6.90;82.30
4107;DHT22;21906;50.812;7.132;2022-12-07T02:43:50;6.80;82.50
4107;DHT22;21906;50.812;7.132;2022-12-07T02:46:33;6.80;82.60
4107;DHT22;21906;50.812;7.132;2022-12-07T02:48:59;6.90;82.80
4107;DHT22;21906;50.812;7.132;2022-12-07T02:51:30;6.80;82.70
4107;DHT22;21906;50.812;7.132;2022-12-07T02:53:56;6.80;83.00
4107;DHT22;21906;50.812;7.132;2022-12-07T02:56:33;6.90;82.70
4107;DHT22;21906;50.812;7.132;2022-12-07T02:59:40;6.90;82.40
4107;DHT22;21906;50.812;7.132;2022-12-07T03:15:46;6.70;83.00
4107;DHT22;21906;50.812;7.132;2022-12-07T03:18:17;6.70;83.10
4107;DHT22;21906;50.812;7.132;2022-12-07T03:20:44;6.70;83.00
4107;DHT22;21906;50.812;7.132;2022-12-07T03:23:12;6.80;82.60
4107;DHT22;21906;50.812;7.132;2022-12-07T03:25:47;6.80;82.60
4107;DHT22;21906;50.812;7.132;2022-12-07T03:28:17;6.80;82.80
4107;DHT22;21906;50.812;7.132;2022-12-07T03:30:49;6.70;83.00
4107;DHT22;21906;50.812;7.132;2022-12-07T03:33:26;6.70;82.90
4107;DHT22;21906;50.812;7.132;2022-12-07T03:36:22;6.70;83.30
4107;DHT22;21906;50.812;7.132;2022-12-07T03:39:03;6.70;83.30
4107;DHT22;21906;50.812;7.132;2022-12-07T03:41:34;6.70;83.20
4107;DHT22;21906;50.812;7.132;2022-12-07T03:44:00;6.70;83.20
4107;DHT22;21906;50.812;7.132;2022-12-07T03:54:46;6.90;83.00
4107;DHT22;21906;50.812;7.132;2022-12-07T03:57:13;6.90;82.90
4107;DHT22;21906;50.812;7.132;2022-12-07T03:59:40;6.80;82.80
4107;DHT22;21906;50.812;7.132;2022-12-07T04:02:07;6.90;82.80
4107;DHT22;21906;50.812;7.132;2022-12-07T04:04:33;6.80;82.90
4107;DHT22;21906;50.812;7.132;2022-12-07T04:06:59;6.80;82.80
4107;DHT22;21906;50.812;7.132;2022-12-07T04:09:25;6.70;82.90
4107;DHT22;21906;50.812;7.132;2022-12-07T04:11:51;6.70;82.90
4107;DHT22;21906;50.812;7.132;2022-12-07T04:14:17;6.70;83.00
4107;DHT22;21906;50.812;7.132;2022-12-07T04:16:47;6.60;83.20
4107;DHT22;21906;50.812;7.132;2022-12-07T04:19:14;6.50;83.40
4107;DHT22;21906;50.812;7.132;2022-12-07T04:21:39;6.50;83.30
4107;DHT22;21906;50.812;7.132;2022-12-07T04:24:05;6.60;83.30
4107;DHT22;21906;50.812;7.132;2022-12-07T04:26:31;6.60;83.20
4107;DHT22;21906;50.812;7.132;2022-12-07T04:28:57;6.60;83.20
4107;DHT22;21906;50.812;7.132;2022-12-07T04:31:22;6.60;83.20
4107;DHT22;21906;50.812;7.132;2022-12-07T04:33:48;6.60;83.10
4107;DHT22;21906;50.812;7.132;2022-12-07T04:36:14;6.60;83.30
4107;DHT22;21906;50.812;7.132;2022-12-07T04:38:40;6.60;83.40
4107;DHT22;21906;50.812;7.132;2022-12-07T04:41:07;6.60;83.30
4107;DHT22;21906;50.812;7.132;2022-12-07T04:43:34;6.60;83.20
4107;DHT22;21906;50.812;7.132;2022-12-07T04:46:00;6.70;83.00
4107;DHT22;21906;50.812;7.132;2022-12-07T04:48:26;6.60;82.90
4107;DHT22;21906;50.812;7.132;2022-12-07T04:50:52;6.60;83.00
4107;DHT22;21906;50.812;7.132;2022-12-07T04:53:18;6.60;83.00
4107;DHT22;21906;50.812;7.132;2022-12-07T04:55:45;6.60;83.10
4107;DHT22;21906;50.812;7.132;2022-12-07T04:58:13;6.60;83.10
4107;DHT22;21906;50.812;7.132;2022-12-07T05:00:39;6.70;83.10
4107;DHT22;21906;50.812;7.132;2022-12-07T05:03:05;6.70;83.10
4107;DHT22;21906;50.812;7.132;2022-12-07T05:05:31;6.70;82.90
4107;DHT22;21906;50.812;7.132;2022-12-07T05:07:56;6.80;82.80
4107;DHT22;21906;50.812;7.132;2022-12-07T05:10:22;6.80;82.80
4107;DHT22;21906;50.812;7.132;2022-12-07T05:12:48;6.80;82.90
4107;DHT22;21906;50.812;7.132;2022-12-07T05:15:15;6.80;82.80
4107;DHT22;21906;50.812;7.132;2022-12-07T05:17:41;6.70;82.80
4107;DHT22;21906;50.812;7.132;2022-12-07T05:20:07;6.70;82.90
4107;DHT22;21906;50.812;7.132;2022-12-07T05:22:33;6.80;83.00
4107;DHT22;21906;50.812;7.132;2022-12-07T05:24:59;6.80;83.00
4107;DHT22;21906;50.812;7.132;2022-12-07T05:27:25;6.80;82.80
4107;DHT22;21906;50.812;7.132;2022-12-07T05:29:51;6.70;83.10
4107;DHT22;21906;50.812;7.132;2022-12-07T05:32:17;6.70;83.00
4107;DHT22;21906;50.812;7.132;2022-12-07T05:34:43;6.80;82.80
4107;DHT22;21906;50.812;7.132;2022-12-07T05:37:09;6.70;82.90
4107;DHT22;21906;50.812;7.132;2022-12-07T05:39:35;6.70;82.50
4107;DHT22;21906;50.812;7.132;2022-12-07T05:42:00;6.60;83.00
4107;DHT22;21906;50.812;7.132;2022-12-07T05:44:45;6.70;82.90
4107;DHT22;21906;50.812;7.132;2022-12-07T05:47:12;6.60;82.80
4107;DHT22;21906;50.812;7.132;2022-12-07T05:49:38;6.60;82.80
4107;DHT22;21906;50.812;7.132;2022-12-07T05:52:05;6.50;83.00
4107;DHT22;21906;50.812;7.132;2022-12-07T05:54:30;6.60;83.10
4107;DHT22;21906;50.812;7.132;2022-12-07T05:56:56;6.60;82.90
4107;DHT22;21906;50.812;7.132;2022-12-07T05:59:22;6.60;82.90
4107;DHT22;21906;50.812;7.132;2022-12-07T06:02:07;6.60;82.90
4107;DHT22;21906;50.812;7.132;2022-12-07T06:04:36;6.50;82.80
4107;DHT22;21906;50.812;7.132;2022-12-07T06:07:02;6.60;83.00
4107;DHT22;21906;50.812;7.132;2022-12-07T06:09:28;6.60;83.10
4107;DHT22;21906;50.812;7.132;2022-12-07T06:11:55;6.60;83.00
4107;DHT22;21906;50.812;7.132;2022-12-07T06:14:39;6.70;83.00
4107;DHT22;21906;50.812;7.132;2022-12-07T06:17:06;6.70;83.10
4107;DHT22;21906;50.812;7.132;2022-12-07T06:19:32;6.60;83.20
4107;DHT22;21906;50.812;7.132;2022-12-07T06:21:58;6.40;83.30
4107;DHT22;21906;50.812;7.132;2022-12-07T06:24:24;6.60;82.50
4107;DHT22;21906;50.812;7.132;2022-12-07T06:26:50;6.60;82.40
4107;DHT22;21906;50.812;7.132;2022-12-07T06:29:17;6.60;82.30
4107;DHT22;21906;50.812;7.132;2022-12-07T06:31:43;6.70;82.00
4107;DHT22;21906;50.812;7.132;2022-12-07T06:34:17;6.70;81.70
4107;DHT22;21906;50.812;7.132;2022-12-07T06:36:44;6.60;81.60
4107;DHT22;21906;50.812;7.132;2022-12-07T06:39:10;6.40;82.50
4107;DHT22;21906;50.812;7.132;2022-12-07T06:41:39;6.40;83.00
4107;DHT22;21906;50.812;7.132;2022-12-07T06:44:05;6.40;83.10
4107;DHT22;21906;50.812;7.132;2022-12-07T06:46:32;6.30;83.00
4107;DHT22;21906;50.812;7.132;2022-12-07T06:48:57;6.40;83.00
4107;DHT22;21906;50.812;7.132;2022-12-07T06:51:23;6.40;82.90
4107;DHT22;21906;50.812;7.132;2022-12-07T06:53:48;6.40;82.80
4107;DHT22;21906;50.812;7.132;2022-12-07T06:56:15;6.40;82.70
4107;DHT22;21906;50.812;7.132;2022-12-07T06:58:41;6.40;82.80
4107;DHT22;21906;50.812;7.132;2022-12-07T07:01:14;6.40;82.70
4107;DHT22;21906;50.812;7.132;2022-12-07T07:03:41;6.50;82.60
4107;DHT22;21906;50.812;7.132;2022-12-07T07:06:07;6.40;82.50
4107;DHT22;21906;50.812;7.132;2022-12-07T07:08:34;6.50;82.50
4107;DHT22;21906;50.812;7.132;2022-12-07T07:11:00;6.50;82.20
4107;DHT22;21906;50.812;7.132;2022-12-07T07:13:27;6.50;82.40
4107;DHT22;21906;50.812;7.132;2022-12-07T07:15:53;6.60;82.30
4107;DHT22;21906;50.812;7.132;2022-12-07T07:18:18;6.60;82.10
4107;DHT22;21906;50.812;7.132;2022-12-07T07:20:44;6.50;82.10
4107;DHT22;21906;50.812;7.132;2022-12-07T07:23:10;6.50;82.20
4107;DHT22;21906;50.812;7.132;2022-12-07T07:25:35;6.60;82.20
4107;DHT22;21906;50.812;7.132;2022-12-07T07:28:02;6.60;82.20
4107;DHT22;21906;50.812;7.132;2022-12-07T07:30:28;6.70;82.20
4107;DHT22;21906;50.812;7.132;2022-12-07T07:32:58;6.70;82.10
4107;DHT22;21906;50.812;7.132;2022-12-07T07:35:24;6.70;82.00
4107;DHT22;21906;50.812;7.132;2022-12-07T07:37:50;6.80;82.10
4107;DHT22;21906;50.812;7.132;2022-12-07T07:40:16;6.80;82.00
4107;DHT22;21906;50.812;7.132;2022-12-07T07:42:42;6.80;82.10
4107;DHT22;21906;50.812;7.132;2022-12-07T07:45:08;6.80;81.90
4107;DHT22;21906;50.812;7.132;2022-12-07T07:47:33;6.70;82.00
4107;DHT22;21906;50.812;7.132;2022-12-07T07:49:59;6.80;81.80
4107;DHT22;21906;50.812;7.132;2022-12-07T07:52:25;6.80;81.80
4107;DHT22;21906;50.812;7.132;2022-12-07T07:54:51;6.80;81.70
4107;DHT22;21906;50.812;7.132;2022-12-07T07:57:17;6.80;81.90
4107;DHT22;21906;50.812;7.132;2022-12-07T07:59:42;6.80;82.00
4107;DHT22;21906;50.812;7.132;2022-12-07T08:02:19;6.80;81.90
4107;DHT22;21906;50.812;7.132;2022-12-07T08:04:45;6.80;81.90
4107;DHT22;21906;50.812;7.132;2022-12-07T08:07:12;6.90;81.80
4107;DHT22;21906;50.812;7.132;2022-12-07T08:09:38;6.90;81.40
4107;DHT22;21906;50.812;7.132;2022-12-07T08:12:04;6.90;81.20
4107;DHT22;21906;50.812;7.132;2022-12-07T08:14:30;6.90;81.30
4107;DHT22;21906;50.812;7.132;2022-12-07T08:16:56;7.00;81.20
4107;DHT22;21906;50.812;7.132;2022-12-07T08:19:22;7.00;81.20
4107;DHT22;21906;50.812;7.132;2022-12-07T08:21:47;7.10;81.30
4107;DHT22;21906;50.812;7.132;2022-12-07T08:24:13;7.00;81.20
4107;DHT22;21906;50.812;7.132;2022-12-07T08:26:40;7.00;81.30
4107;DHT22;21906;50.812;7.132;2022-12-07T08:29:05;7.00;81.30
4107;DHT22;21906;50.812;7.132;2022-12-07T08:31:31;7.10;81.00
4107;DHT22;21906;50.812;7.132;2022-12-07T08:33:58;7.00;81.00
4107;DHT22;21906;50.812;7.132;2022-12-07T08:36:24;7.10;81.00
4107;DHT22;21906;50.812;7.132;2022-12-07T08:38:50;7.10;81.00
4107;DHT22;21906;50.812;7.132;2022-12-07T08:41:16;7.20;80.70
4107;DHT22;21906;50.812;7.132;2022-12-07T08:43:41;7.20;80.60
4107;DHT22;21906;50.812;7.132;2022-12-07T08:46:15;7.20;80.20
4107;DHT22;21906;50.812;7.132;2022-12-07T08:48:50;7.20;80.20
4107;DHT22;21906;50.812;7.132;2022-12-07T08:51:16;7.00;80.80
4107;DHT22;21906;50.812;7.132;2022-12-07T08:53:43;7.10;80.60
4107;DHT22;21906;50.812;7.132;2022-12-07T08:56:09;7.00;80.50
4107;DHT22;21906;50.812;7.132;2022-12-07T08:58:36;7.00;80.50
4107;DHT22;21906;50.812;7.132;2022-12-07T09:01:03;7.00;80.70
4107;DHT22;21906;50.812;7.132;2022-12-07T09:03:30;7.10;80.90
4107;DHT22;21906;50.812;7.132;2022-12-07T09:05:56;7.10;81.00
4107;DHT22;21906;50.812;7.132;2022-12-07T09:08:26;7.20;81.50
4107;DHT22;21906;50.812;7.132;2022-12-07T09:10:54;7.30;81.30
4107;DHT22;21906;50.812;7.132;2022-12-07T09:13:20;7.30;81.10
4107;DHT22;21906;50.812;7.132;2022-12-07T09:15:45;7.40;81.10
4107;DHT22;21906;50.812;7.132;2022-12-07T09:18:11;7.50;81.10
4107;DHT22;21906;50.812;7.132;2022-12-07T09:20:37;7.50;80.90
4107;DHT22;21906;50.812;7.132;2022-12-07T09:23:04;7.50;80.90
4107;DHT22;21906;50.812;7.132;2022-12-07T09:25:30;7.50;81.00
4107;DHT22;21906;50.812;7.132;2022-12-07T09:27:57;7.70;80.00
4107;DHT22;21906;50.812;7.132;2022-12-07T09:30:23;7.60;80.10
4107;DHT22;21906;50.812;7.132;2022-12-07T09:32:48;7.50;80.20
4107;DHT22;21906;50.812;7.132;2022-12-07T09:35:14;7.40;80.10
4107;DHT22;21906;50.812;7.132;2022-12-07T09:37:40;7.40;80.50
4107;DHT22;21906;50.812;7.132;2022-12-07T09:40:06;7.40;80.60
4107;DHT22;21906;50.812;7.132;2022-12-07T09:42:38;7.50;80.70
4107;DHT22;21906;50.812;7.132;2022-12-07T09:45:15;7.60;80.30
4107;DHT22;21906;50.812;7.132;2022-12-07T09:47:42;7.70;80.30
4107;DHT22;21906;50.812;7.132;2022-12-07T09:50:17;7.60;79.70
4107;DHT22;21906;50.812;7.132;2022-12-07T09:52:45;7.70;79.70
4107;DHT22;21906;50.812;7.132;2022-12-07T09:55:27;7.90;80.10
4107;DHT22;21906;50.812;7.132;2022-12-07T09:57:53;7.90;78.80
4107;DHT22;21906;50.812;7.132;2022-12-07T10:00:21;7.80;79.20
4107;DHT22;21906;50.812;7.132;2022-12-07T10:05:24;7.70;79.00
4107;DHT22;21906;50.812;7.132;2022-12-07T10:07:51;7.80;78.80
4107;DHT22;21906;50.812;7.132;2022-12-07T10:10:29;7.60;79.10
4107;DHT22;21906;50.812;7.132;2022-12-07T10:12:59;7.60;79.40
4107;DHT22;21906;50.812;7.132;2022-12-07T10:15:42;7.60;79.90
4107;DHT22;21906;50.812;7.132;2022-12-07T10:18:28;7.60;79.90
4107;DHT22;21906;50.812;7.132;2022-12-07T10:23:28;7.50;79.70
4107;DHT22;21906;50.812;7.132;2022-12-07T10:25:54;7.50;79.70
4107;DHT22;21906;50.812;7.132;2022-12-07T10:28:21;7.50;79.60
4107;DHT22;21906;50.812;7.132;2022-12-07T10:33:34;7.60;79.70
4107;DHT22;21906;50.812;7.132;2022-12-07T10:38:52;7.80;79.00
4107;DHT22;21906;50.812;7.132;2022-12-07T10:41:18;7.80;78.90
4107;DHT22;21906;50.812;7.132;2022-12-07T10:43:51;7.70;79.00
4107;DHT22;21906;50.812;7.132;2022-12-07T10:46:29;7.80;79.70
4107;DHT22;21906;50.812;7.132;2022-12-07T10:49:05;7.90;78.70
4107;DHT22;21906;50.812;7.132;2022-12-07T10:59:51;8.20;77.40
4107;DHT22;21906;50.812;7.132;2022-12-07T11:05:24;8.00;77.50
4107;DHT22;21906;50.812;7.132;2022-12-07T11:08:03;8.10;76.70
4107;DHT22;21906;50.812;7.132;2022-12-07T11:16:16;8.00;77.70
4107;DHT22;21906;50.812;7.132;2022-12-07T11:21:42;8.00;77.50
4107;DHT22;21906;50.812;7.132;2022-12-07T11:24:15;8.00;77.30
4107;DHT22;21906;50.812;7.132;2022-12-07T11:34:40;8.20;78.00
4107;DHT22;21906;50.812;7.132;2022-12-07T11:37:25;8.20;76.40
4107;DHT22;21906;50.812;7.132;2022-12-07T11:40:05;8.30;75.50
4107;DHT22;21906;50.812;7.132;2022-12-07T11:42:41;8.30;75.30
4107;DHT22;21906;50.812;7.132;2022-12-07T11:45:15;8.30;74.20
4107;DHT22;21906;50.812;7.132;2022-12-07T11:48:01;8.20;74.10
4107;DHT22;21906;50.812;7.132;2022-12-07T11:50:40;8.10;74.70
4107;DHT22;21906;50.812;7.132;2022-12-07T11:53:25;8.10;74.80
4107;DHT22;21906;50.812;7.132;2022-12-07T12:06:38;7.80;75.10
4107;DHT22;21906;50.812;7.132;2022-12-07T12:23:17;7.90;75.50
4107;DHT22;21906;50.812;7.132;2022-12-07T12:26:00;7.90;75.60
4107;DHT22;21906;50.812;7.132;2022-12-07T12:28:30;7.80;75.60
4107;DHT22;21906;50.812;7.132;2022-12-07T12:31:32;7.70;77.50
4107;DHT22;21906;50.812;7.132;2022-12-07T12:34:02;7.50;77.30
4107;DHT22;21906;50.812;7.132;2022-12-07T12:46:54;7.30;78.20
4107;DHT22;21906;50.812;7.132;2022-12-07T13:57:00;7.30;77.90
4107;DHT22;21906;50.812;7.132;2022-12-07T13:59:26;7.40;77.90
4107;DHT22;21906;50.812;7.132;2022-12-07T14:01:53;7.30;77.80
4107;DHT22;21906;50.812;7.132;2022-12-07T14:06:53;7.40;77.90
4107;DHT22;21906;50.812;7.132;2022-12-07T14:09:26;7.50;77.40
4107;DHT22;21906;50.812;7.132;2022-12-07T14:11:54;7.50;76.90
4107;DHT22;21906;50.812;7.132;2022-12-07T14:14:24;7.50;77.00
4107;DHT22;21906;50.812;7.132;2022-12-07T14:17:15;7.60;76.60
4107;DHT22;21906;50.812;7.132;2022-12-07T14:19:52;7.60;76.50
4107;DHT22;21906;50.812;7.132;2022-12-07T14:22:39;7.60;76.40
4107;DHT22;21906;50.812;7.132;2022-12-07T14:27:46;7.50;75.90
4107;DHT22;21906;50.812;7.132;2022-12-07T14:30:16;7.60;75.90
4107;DHT22;21906;50.812;7.132;2022-12-07T14:32:43;7.70;75.90
4107;DHT22;21906;50.812;7.132;2022-12-07T14:35:15;7.70;76.10
4107;DHT22;21906;50.812;7.132;2022-12-07T14:37:43;7.70;76.00
4107;DHT22;21906;50.812;7.132;2022-12-07T14:40:22;7.60;76.20
4107;DHT22;21906;50.812;7.132;2022-12-07T14:42:51;7.80;75.90
4107;DHT22;21906;50.812;7.132;2022-12-07T14:45:21;7.70;75.70
4107;DHT22;21906;50.812;7.132;2022-12-07T14:47:48;7.70;75.20
4107;DHT22;21906;50.812;7.132;2022-12-07T14:50:18;7.70;75.70
4107;DHT22;21906;50.812;7.132;2022-12-07T14:52:52;7.70;75.40
4107;DHT22;21906;50.812;7.132;2022-12-07T14:55:26;7.70;75.40
4107;DHT22;21906;50.812;7.132;2022-12-07T14:57:52;7.70;75.50
4107;DHT22;21906;50.812;7.132;2022-12-07T15:00:19;7.70;75.80
4107;DHT22;21906;50.812;7.132;2022-12-07T15:02:46;7.70;75.50
4107;DHT22;21906;50.812;7.132;2022-12-07T15:05:13;7.80;75.30
4107;DHT22;21906;50.812;7.132;2022-12-07T15:07:39;7.80;75.50
4107;DHT22;21906;50.812;7.132;2022-12-07T15:10:06;7.70;75.50
4107;DHT22;21906;50.812;7.132;2022-12-07T15:12:32;7.70;75.70
4107;DHT22;21906;50.812;7.132;2022-12-07T15:14:57;7.60;76.00
4107;DHT22;21906;50.812;7.132;2022-12-07T15:17:23;7.50;76.30
4107;DHT22;21906;50.812;7.132;2022-12-07T15:19:49;7.60;76.40
4107;DHT22;21906;50.812;7.132;2022-12-07T15:22:14;7.60;76.50
4107;DHT22;21906;50.812;7.132;2022-12-07T15:24:40;7.50;76.60
4107;DHT22;21906;50.812;7.132;2022-12-07T15:27:06;7.50;76.80
4107;DHT22;21906;50.812;7.132;2022-12-07T15:29:31;7.50;77.00
4107;DHT22;21906;50.812;7.132;2022-12-07T15:31:57;7.50;76.90
4107;DHT22;21906;50.812;7.132;2022-12-07T15:34:26;7.50;77.00
4107;DHT22;21906;50.812;7.132;2022-12-07T15:36:54;7.40;77.30
4107;DHT22;21906;50.812;7.132;2022-12-07T15:39:20;7.40;77.20
4107;DHT22;21906;50.812;7.132;2022-12-07T15:41:47;7.50;77.20
4107;DHT22;21906;50.812;7.132;2022-12-07T15:44:13;7.40;77.50
4107;DHT22;21906;50.812;7.132;2022-12-07T15:46:58;7.40;77.30
4107;DHT22;21906;50.812;7.132;2022-12-07T15:49:24;7.50;76.70
4107;DHT22;21906;50.812;7.132;2022-12-07T15:51:49;7.50;76.90
4107;DHT22;21906;50.812;7.132;2022-12-07T15:54:22;7.60;76.80
4107;DHT22;21906;50.812;7.132;2022-12-07T15:56:48;7.60;76.80
4107;DHT22;21906;50.812;7.132;2022-12-07T15:59:14;7.50;76.60
4107;DHT22;21906;50.812;7.132;2022-12-07T16:01:40;7.60;76.90
4107;DHT22;21906;50.812;7.132;2022-12-07T16:04:06;7.60;76.90
4107;DHT22;21906;50.812;7.132;2022-12-07T16:06:31;7.50;77.70
4107;DHT22;21906;50.812;7.132;2022-12-07T16:08:57;7.40;78.10
4107;DHT22;21906;50.812;7.132;2022-12-07T16:11:23;7.30;78.40
4107;DHT22;21906;50.812;7.132;2022-12-07T16:13:49;7.30;79.00
4107;DHT22;21906;50.812;7.132;2022-12-07T16:16:17;7.30;79.10
4107;DHT22;21906;50.812;7.132;2022-12-07T16:18:44;7.30;79.10
4107;DHT22;21906;50.812;7.132;2022-12-07T16:21:10;7.30;79.10
4107;DHT22;21906;50.812;7.132;2022-12-07T16:23:36;7.40;78.50
4107;DHT22;21906;50.812;7.132;2022-12-07T16:26:07;7.40;77.80
4107;DHT22;21906;50.812;7.132;2022-12-07T16:28:33;7.30;78.20
4107;DHT22;21906;50.812;7.132;2022-12-07T16:31:04;7.40;78.30
4107;DHT22;21906;50.812;7.132;2022-12-07T16:33:30;7.40;78.00
4107;DHT22;21906;50.812;7.132;2022-12-07T16:35:58;7.50;77.60
4107;DHT22;21906;50.812;7.132;2022-12-07T16:38:23;7.40;77.80
4107;DHT22;21906;50.812;7.132;2022-12-07T16:40:49;7.40;77.90
4107;DHT22;21906;50.812;7.132;2022-12-07T16:43:15;7.40;77.90
4107;DHT22;21906;50.812;7.132;2022-12-07T16:45:41;7.30;78.10
4107;DHT22;21906;50.812;7.132;2022-12-07T16:48:07;7.30;77.80
4107;DHT22;21906;50.812;7.132;2022-12-07T16:50:32;7.40;77.70
4107;DHT22;21906;50.812;7.132;2022-12-07T16:52:58;7.30;77.50
4107;DHT22;21906;50.812;7.132;2022-12-07T16:55:24;7.20;78.00
4107;DHT22;21906;50.812;7.132;2022-12-07T16:57:50;7.20;77.80
4107;DHT22;21906;50.812;7.132;2022-12-07T17:00:16;7.30;77.60
4107;DHT22;21906;50.812;7.132;2022-12-07T17:02:42;7.30;77.60
4107;DHT22;21906;50.812;7.132;2022-12-07T17:05:08;7.20;77.00
4107;DHT22;21906;50.812;7.132;2022-12-07T17:07:33;7.20;77.40
4107;DHT22;21906;50.812;7.132;2022-12-07T17:09:59;7.30;77.20
4107;DHT22;21906;50.812;7.132;2022-12-07T17:12:25;7.30;77.30
4107;DHT22;21906;50.812;7.132;2022-12-07T17:14:51;7.10;77.60
4107;DHT22;21906;50.812;7.132;2022-12-07T17:17:35;7.10;77.70
4107;DHT22;21906;50.812;7.132;2022-12-07T17:20:00;7.10;77.60
4107;DHT22;21906;50.812;7.132;2022-12-07T17:22:26;7.10;77.90
4107;DHT22;21906;50.812;7.132;2022-12-07T17:24:52;7.00;77.80
4107;DHT22;21906;50.812;7.132;2022-12-07T17:27:17;7.00;77.90
4107;DHT22;21906;50.812;7.132;2022-12-07T17:29:43;7.00;78.00
4107;DHT22;21906;50.812;7.132;2022-12-07T17:32:09;7.10;77.60
4107;DHT22;21906;50.812;7.132;2022-12-07T17:34:35;7.10;77.60
4107;DHT22;21906;50.812;7.132;2022-12-07T17:37:02;7.10;77.50
4107;DHT22;21906;50.812;7.132;2022-12-07T17:39:27;7.10;77.50
4107;DHT22;21906;50.812;7.132;2022-12-07T17:41:54;7.10;77.80
4107;DHT22;21906;50.812;7.132;2022-12-07T17:44:38;7.20;77.70
4107;DHT22;21906;50.812;7.132;2022-12-07T17:47:04;7.20;77.60
4107;DHT22;21906;50.812;7.132;2022-12-07T17:49:30;7.20;77.40
4107;DHT22;21906;50.812;7.132;2022-12-07T17:51:56;7.20;77.40
4107;DHT22;21906;50.812;7.132;2022-12-07T17:54:41;7.20;77.70
4107;DHT22;21906;50.812;7.132;2022-12-07T17:57:06;7.20;77.70
4107;DHT22;21906;50.812;7.132;2022-12-07T17:59:32;7.20;77.80
4107;DHT22;21906;50.812;7.132;2022-12-07T18:01:58;7.10;77.60
4107;DHT22;21906;50.812;7.132;2022-12-07T18:04:24;7.10;78.00
4107;DHT22;21906;50.812;7.132;2022-12-07T18:06:49;7.10;78.10
4107;DHT22;21906;50.812;7.132;2022-12-07T18:09:15;7.10;78.00
4107;DHT22;21906;50.812;7.132;2022-12-07T18:11:40;7.20;78.20
4107;DHT22;21906;50.812;7.132;2022-12-07T18:14:06;7.10;78.20
4107;DHT22;21906;50.812;7.132;2022-12-07T18:16:32;7.20;78.30
4107;DHT22;21906;50.812;7.132;2022-12-07T18:19:03;7.20;78.30
4107;DHT22;21906;50.812;7.132;2022-12-07T18:21:30;7.20;78.20
4107;DHT22;21906;50.812;7.132;2022-12-07T18:23:58;7.20;78.00
4107;DHT22;21906;50.812;7.132;2022-12-07T18:26:26;7.10;78.50
4107;DHT22;21906;50.812;7.132;2022-12-07T18:28:52;7.10;78.50
4107;DHT22;21906;50.812;7.132;2022-12-07T18:31:18;7.10;78.50
4107;DHT22;21906;50.812;7.132;2022-12-07T18:33:45;7.10;78.40
4107;DHT22;21906;50.812;7.132;2022-12-07T18:36:11;7.10;78.60
4107;DHT22;21906;50.812;7.132;2022-12-07T18:38:38;7.20;78.40
4107;DHT22;21906;50.812;7.132;2022-12-07T18:41:06;7.20;78.20
4107;DHT22;21906;50.812;7.132;2022-12-07T18:43:32;7.30;77.90
4107;DHT22;21906;50.812;7.132;2022-12-07T18:45:58;7.20;78.00
4107;DHT22;21906;50.812;7.132;2022-12-07T18:48:24;7.20;78.00
4107;DHT22;21906;50.812;7.132;2022-12-07T18:51:00;7.00;78.50
4107;DHT22;21906;50.812;7.132;2022-12-07T18:53:27;7.00;78.70
4107;DHT22;21906;50.812;7.132;2022-12-07T18:58:31;7.00;78.70
4107;DHT22;21906;50.812;7.132;2022-12-07T19:00:57;7.10;78.80
4107;DHT22;21906;50.812;7.132;2022-12-07T19:03:23;7.10;78.50
4107;DHT22;21906;50.812;7.132;2022-12-07T19:05:49;7.10;78.40
4107;DHT22;21906;50.812;7.132;2022-12-07T19:08:15;7.10;78.30
4107;DHT22;21906;50.812;7.132;2022-12-07T19:10:41;7.10;78.20
4107;DHT22;21906;50.812;7.132;2022-12-07T19:13:06;7.10;78.20
4107;DHT22;21906;50.812;7.132;2022-12-07T19:15:33;7.00;78.20
4107;DHT22;21906;50.812;7.132;2022-12-07T19:17:59;7.10;78.10